Time;durP1;ratioP1;P1;durP2;ratioP2;P2;SDS_P1;SDS_P2;PMS_P1;PMS_P2;Temp;Humidity;BMP_temperature;BMP_pressure;BME280_temperature;BME280_humidity;BME280_pressure;Samples;Min_cycle;Max_cycle;Signal;HPM_P1;HPM_P2
2022/11/09 00:01:01;;;;;;;;;;;;;;;12.12;73.49;100978.19;5344808;32;35587;-69
2022/11/09 00:04:03;;;;;;;;;;;;;;;12.21;73.06;100975.22;5352302;32;35905;-70
2022/11/09 00:07:05;;;;;;;;;;;;;;;10.73;79.12;100973.13;5347891;32;37469;-69
2022/11/09 00:10:07;;;;;;;;;;;;;;;11.58;76.79;100976.53;5346865;32;44613;-70
2022/11/09 00:13:09;;;;;;;;;;;;;;;11.61;74.26;100973.81;5366544;32;35600;-70
2022/11/09 00:16:12;;;;;;;;;;;;;;;12.04;74.44;100970.53;5336542;32;34362;-69
2022/11/09 00:19:14;;;;;;;;;;;;;;;12.66;71.26;100969.16;5341007;32;35618;-70
2022/11/09 00:22:16;;;;;;;;;;;;;;;11.77;74.90;100967.09;5349134;32;35483;-70
2022/11/09 00:25:18;;;;;;;;;;;;;;;11.86;75.25;100965.97;5347025;32;34426;-69
2022/11/09 00:28:20;;;;;;;;;;;;;;;12.07;73.06;100965.19;5366432;32;34977;-71
2022/11/09 00:31:22;;;;;;;;;;;;;;;12.29;71.87;100962.63;5336192;32;34376;-70
2022/11/09 00:34:24;;;;;;;;;;;;;;;12.27;73.07;100959.19;5363372;32;35628;-69
2022/11/09 00:37:28;;;;;;;;;;;;;;;12.53;71.52;100965.25;5326509;32;34557;-69
2022/11/09 00:40:30;;;;;;;;;;;;;;;12.52;71.26;100959.13;5327906;32;34333;-69
2022/11/09 00:43:31;;;;;;;;;;;;;;;12.12;73.72;100970.28;5355684;32;34345;-69
2022/11/09 00:46:34;;;;;;;;;;;;;;;11.22;76.06;100968.09;5316032;32;35499;-70
2022/11/09 00:49:36;;;;;;;;;;;;;;;12.59;71.37;100963.25;5355521;32;34192;-69
2022/11/09 00:52:38;;;;;;;;;;;;;;;12.31;72.48;100960.81;5317702;32;44480;-70
2022/11/09 00:55:39;;;;;;;;;;;;;;;12.43;71.10;100951.59;5353822;32;34340;-70
2022/11/09 00:58:41;;;;;;;;;;;;;;;11.32;76.64;100951.09;5349754;32;35726;-70
2022/11/09 01:01:43;;;;;;;;;;;;;;;12.10;74.20;100949.25;5339434;32;34266;-69
2022/11/09 01:04:45;;;;;;;;;;;;;;;11.24;77.72;100950.47;5363069;32;34934;-70
2022/11/09 01:07:47;;;;;;;;;;;;;;;11.02;77.12;100955.59;5346929;32;35565;-71
2022/11/09 01:10:49;;;;;;;;;;;;;;;11.82;75.63;100956.44;5353116;32;35288;-72
2022/11/09 01:13:51;;;;;;;;;;;;;;;11.40;76.53;100954.34;5347020;32;35478;-69
2022/11/09 01:16:52;;;;;;;;;;;;;;;12.28;72.42;100954.78;5357315;32;34457;-70
2022/11/09 01:19:54;;;;;;;;;;;;;;;11.58;75.74;100945.78;5352284;32;35617;-69
2022/11/09 01:22:56;;;;;;;;;;;;;;;11.80;75.66;100943.28;5346318;32;34469;-69
2022/11/09 01:25:58;;;;;;;;;;;;;;;11.68;75.16;100945.50;5348849;32;35891;-70
2022/11/09 01:29:03;;;;;;;;;;;;;;;12.10;73.40;100943.97;5324650;32;35494;-70
2022/11/09 01:32:04;;;;;;;;;;;;;;;11.73;74.07;100943.56;5365288;32;34492;-70
2022/11/09 01:35:06;;;;;;;;;;;;;;;12.04;73.40;100943.34;5342056;32;37771;-70
2022/11/09 01:38:08;;;;;;;;;;;;;;;10.49;79.78;100945.78;5355754;32;36062;-69
2022/11/09 01:41:18;;;;;;;;;;;;;;;10.95;79.54;100944.41;5308229;32;35443;-72
2022/11/09 01:44:20;;;;;;;;;;;;;;;10.96;78.98;100945.25;5342813;32;34285;-69
2022/11/09 01:47:22;;;;;;;;;;;;;;;10.87;81.49;100927.12;5333208;32;35973;-69
2022/11/09 01:50:44;;;;;;;;;;;;;;;10.95;79.71;100933.00;5338619;32;34341;-69
2022/11/09 01:53:47;;;;;;;;;;;;;;;11.38;77.68;100927.19;5363841;32;36285;-69
2022/11/09 01:56:49;;;;;;;;;;;;;;;11.08;78.61;100926.47;5339138;32;34412;-70
2022/11/09 01:59:53;;;;;;;;;;;;;;;11.50;77.46;100928.56;5349985;32;34366;-69
2022/11/09 02:02:56;;;;;;;;;;;;;;;10.87;77.55;100925.34;5355061;32;36224;-69
2022/11/09 02:05:58;;;;;;;;;;;;;;;11.14;78.47;100920.97;5347639;32;34362;-69
2022/11/09 02:09:02;;;;;;;;;;;;;;;11.41;76.75;100916.56;5349576;32;35341;-69
2022/11/09 02:12:05;;;;;;;;;;;;;;;11.11;76.99;100916.69;5326278;32;35407;-69
2022/11/09 02:15:08;;;;;;;;;;;;;;;11.00;78.11;100910.03;5345548;32;45763;-70
2022/11/09 02:18:09;;;;;;;;;;;;;;;11.30;75.93;100916.06;5333571;32;34726;-70
2022/11/09 02:21:11;;;;;;;;;;;;;;;11.23;76.63;100912.78;5339135;32;35422;-70
2022/11/09 02:24:13;;;;;;;;;;;;;;;11.23;76.90;100915.41;5359504;32;35049;-70
2022/11/09 02:27:15;;;;;;;;;;;;;;;11.73;75.68;100907.56;5340424;32;34680;-70
2022/11/09 02:30:17;;;;;;;;;;;;;;;10.20;80.84;100916.88;5342761;32;34936;-70
2022/11/09 02:33:19;;;;;;;;;;;;;;;10.99;78.02;100914.44;5334710;32;34200;-70
2022/11/09 02:36:22;;;;;;;;;;;;;;;11.27;74.94;100900.38;5334136;32;34445;-70
2022/11/09 02:39:24;;;;;;;;;;;;;;;10.95;77.68;100909.31;5328359;32;34229;-70
2022/11/09 02:42:26;;;;;;;;;;;;;;;11.61;74.48;100902.72;5329306;32;34406;-69
2022/11/09 02:45:30;;;;;;;;;;;;;;;10.93;76.20;100908.53;5343536;32;34395;-70
2022/11/09 02:48:32;;;;;;;;;;;;;;;11.21;75.99;100908.50;5310070;32;35480;-69
2022/11/09 02:51:34;;;;;;;;;;;;;;;10.99;76.42;100909.19;5362565;32;34713;-70
2022/11/09 02:54:36;;;;;;;;;;;;;;;10.25;79.88;100905.38;5346702;32;35781;-71
2022/11/09 02:57:38;;;;;;;;;;;;;;;11.16;76.25;100908.66;5342300;32;44674;-71
2022/11/09 03:00:40;;;;;;;;;;;;;;;11.43;74.21;100906.84;5323425;32;34359;-70
2022/11/09 03:03:41;;;;;;;;;;;;;;;10.96;76.56;100909.31;5351192;32;34817;-70
2022/11/09 03:06:43;;;;;;;;;;;;;;;11.14;74.78;100907.81;5341269;32;34802;-69
2022/11/09 03:09:46;;;;;;;;;;;;;;;10.84;76.80;100905.28;5342028;32;34334;-70
2022/11/09 03:12:47;;;;;;;;;;;;;;;11.06;76.46;100907.22;5347125;32;35402;-71
2022/11/09 03:15:49;;;;;;;;;;;;;;;11.08;75.57;100911.53;5342125;32;34274;-70
2022/11/09 03:18:51;;;;;;;;;;;;;;;11.63;74.21;100909.66;5365458;32;35434;-70
2022/11/09 03:21:53;;;;;;;;;;;;;;;11.03;75.05;100918.72;5325265;32;35088;-70
2022/11/09 03:24:55;;;;;;;;;;;;;;;12.24;70.81;100913.66;5350387;32;34983;-70
2022/11/09 03:28:00;;;;;;;;;;;;;;;11.62;72.72;100914.97;5366630;32;34920;-70
2022/11/09 03:31:02;;;;;;;;;;;;;;;11.45;75.26;100906.78;5339261;32;35186;-71
2022/11/09 03:34:04;;;;;;;;;;;;;;;10.91;75.75;100915.63;5350582;32;34306;-71
2022/11/09 03:37:06;;;;;;;;;;;;;;;10.95;76.76;100911.94;5339234;32;34607;-70
2022/11/09 03:40:08;;;;;;;;;;;;;;;11.05;75.62;100914.25;5340599;32;44628;-71
2022/11/09 03:43:09;;;;;;;;;;;;;;;11.26;73.99;100906.56;5347757;32;34739;-71
2022/11/09 03:46:14;;;;;;;;;;;;;;;11.15;74.96;100916.59;5308992;32;34763;-70
2022/11/09 03:49:16;;;;;;;;;;;;;;;10.74;74.95;100913.50;5354642;32;35539;-71
2022/11/09 03:52:17;;;;;;;;;;;;;;;10.85;76.61;100917.53;5343290;32;35025;-70
2022/11/09 03:55:19;;;;;;;;;;;;;;;11.12;75.23;100921.03;5360098;32;34771;-70
2022/11/09 03:58:21;;;;;;;;;;;;;;;11.84;71.89;100915.94;5333808;32;34713;-70
2022/11/09 04:01:23;;;;;;;;;;;;;;;11.60;72.89;100917.66;5350706;32;36947;-71
2022/11/09 04:04:25;;;;;;;;;;;;;;;11.06;75.27;100904.59;5352267;32;35452;-69
2022/11/09 04:07:27;;;;;;;;;;;;;;;10.67;77.15;100907.56;5346193;32;34716;-69
2022/11/09 04:10:29;;;;;;;;;;;;;;;10.55;78.34;100906.19;5356227;32;35043;-70
2022/11/09 04:13:30;;;;;;;;;;;;;;;11.26;75.22;100896.88;5347569;32;34930;-70
2022/11/09 04:16:32;;;;;;;;;;;;;;;10.66;76.31;100905.00;5364794;32;35384;-70
2022/11/09 04:19:34;;;;;;;;;;;;;;;11.31;74.80;100900.22;5346454;32;35037;-71
2022/11/09 04:22:36;;;;;;;;;;;;;;;11.29;75.03;100902.06;5357918;32;44731;-69
2022/11/09 04:25:40;;;;;;;;;;;;;;;10.33;79.13;100901.66;5324398;32;44925;-69
2022/11/09 04:28:42;;;;;;;;;;;;;;;11.28;75.15;100895.09;5348436;32;35040;-69
2022/11/09 04:31:44;;;;;;;;;;;;;;;11.61;73.71;100898.31;5358788;32;35372;-70
2022/11/09 04:34:45;;;;;;;;;;;;;;;11.52;73.63;100893.34;5350944;32;34666;-71
2022/11/09 04:37:58;;;;;;;;;;;;;;;11.83;71.94;100879.12;5353783;32;35387;-69
2022/11/09 04:41:00;;;;;;;;;;;;;;;11.46;73.45;100887.44;5328519;32;35480;-71
2022/11/09 04:44:02;;;;;;;;;;;;;;;10.90;76.21;100891.09;5354810;32;34741;-70
2022/11/09 04:47:04;;;;;;;;;;;;;;;11.68;72.99;100877.91;5324497;32;34801;-70
2022/11/09 04:50:06;;;;;;;;;;;;;;;11.69;72.31;100887.50;5340628;32;45043;-70
2022/11/09 04:53:09;;;;;;;;;;;;;;;10.76;76.30;100902.06;5352879;32;34482;-71
2022/11/09 04:56:11;;;;;;;;;;;;;;;11.51;72.96;100891.66;5339448;32;35419;-69
2022/11/09 04:59:13;;;;;;;;;;;;;;;11.77;72.65;100895.97;5350314;32;34704;-70
2022/11/09 05:02:15;;;;;;;;;;;;;;;11.86;71.49;100890.44;5326814;32;35467;-70
2022/11/09 05:05:17;;;;;;;;;;;;;;;11.75;72.51;100889.91;5358989;32;34583;-69
2022/11/09 05:08:19;;;;;;;;;;;;;;;11.65;72.31;100899.03;5352526;32;34378;-70
2022/11/09 05:11:21;;;;;;;;;;;;;;;11.68;71.49;100903.38;5336517;32;35102;-70
2022/11/09 05:14:23;;;;;;;;;;;;;;;11.78;71.85;100896.84;5364678;32;34690;-70
2022/11/09 05:17:25;;;;;;;;;;;;;;;10.91;75.60;100903.31;5330288;32;34203;-70
2022/11/09 05:20:27;;;;;;;;;;;;;;;11.44;73.88;100887.50;5355115;32;35014;-70
2022/11/09 05:26:49;;;;;;;;;;;;;;;11.60;73.01;100896.59;5337340;32;35497;-69
2022/11/09 05:29:51;;;;;;;;;;;;;;;10.75;77.88;100904.69;5357485;32;35352;-69
2022/11/09 05:32:53;;;;;;;;;;;;;;;11.15;74.88;100909.56;5342637;32;34920;-69
2022/11/09 05:35:55;;;;;;;;;;;;;;;11.48;74.12;100899.66;5363064;32;34837;-70
2022/11/09 05:38:56;;;;;;;;;;;;;;;11.12;76.21;100907.00;5330616;32;35064;-69
2022/11/09 05:41:58;;;;;;;;;;;;;;;11.00;76.46;100908.28;5348536;32;35704;-69
2022/11/09 05:45:00;;;;;;;;;;;;;;;11.60;74.25;100899.22;5334601;32;34861;-71
2022/11/09 05:48:22;;;;;;;;;;;;;;;11.19;74.53;100905.91;5330653;32;35769;-69
2022/11/09 05:51:24;;;;;;;;;;;;;;;10.37;77.95;100903.25;5351691;32;34759;-70
2022/11/09 05:54:26;;;;;;;;;;;;;;;10.97;78.18;100899.62;5348750;32;35258;-70
2022/11/09 05:57:28;;;;;;;;;;;;;;;10.28;78.43;100913.12;5358967;32;35437;-70
2022/11/09 06:00:30;;;;;;;;;;;;;;;11.09;77.16;100912.41;5324853;32;34685;-70
2022/11/09 06:03:32;;;;;;;;;;;;;;;11.22;75.30;100918.97;5345859;32;34351;-70
2022/11/09 06:06:36;;;;;;;;;;;;;;;11.29;75.75;100923.12;5348684;32;45623;-70
2022/11/09 06:09:38;;;;;;;;;;;;;;;10.92;75.94;100930.47;5338490;32;34414;-70
2022/11/09 06:12:40;;;;;;;;;;;;;;;11.29;74.84;100927.50;5362679;32;34431;-69
2022/11/09 06:15:42;;;;;;;;;;;;;;;11.25;74.83;100918.84;5324751;32;34462;-70
2022/11/09 06:18:44;;;;;;;;;;;;;;;11.25;74.72;100925.88;5335750;32;35385;-70
2022/11/09 06:21:46;;;;;;;;;;;;;;;11.07;75.38;100928.19;5345264;32;34245;-69
2022/11/09 06:24:48;;;;;;;;;;;;;;;11.15;75.46;100925.34;5339262;32;34985;-70
2022/11/09 06:27:52;;;;;;;;;;;;;;;10.77;76.69;100932.69;5355826;32;34825;-69
2022/11/09 06:30:57;;;;;;;;;;;;;;;10.96;76.77;100940.00;5346012;32;34855;-71
2022/11/09 06:33:59;;;;;;;;;;;;;;;11.30;74.91;100932.72;5362263;32;34617;-71
2022/11/09 06:37:01;;;;;;;;;;;;;;;11.05;75.93;100937.94;5338042;32;35526;-69
2022/11/09 06:40:03;;;;;;;;;;;;;;;11.34;74.29;100936.97;5353752;32;36016;-73
2022/11/09 06:43:05;;;;;;;;;;;;;;;11.32;74.68;100937.94;5345776;32;34292;-76
2022/11/09 06:46:09;;;;;;;;;;;;;;;11.54;72.87;100938.94;5331354;32;44660;-76
2022/11/09 06:49:11;;;;;;;;;;;;;;;11.30;73.40;100930.09;5341943;32;34401;-76
2022/11/09 06:52:13;;;;;;;;;;;;;;;11.27;73.27;100939.84;5318899;32;35045;-76
2022/11/09 06:55:15;;;;;;;;;;;;;;;11.31;73.04;100937.06;5348165;32;34624;-73
2022/11/09 06:58:18;;;;;;;;;;;;;;;10.84;74.53;100934.22;5326999;32;34190;-70
2022/11/09 07:01:21;;;;;;;;;;;;;;;11.00;74.79;100942.47;5347695;32;35319;-71
2022/11/09 07:04:23;;;;;;;;;;;;;;;10.91;75.01;100936.66;5331121;32;34367;-66
2022/11/09 07:07:27;;;;;;;;;;;;;;;10.83;76.54;100947.41;5347550;32;34432;-72
2022/11/09 07:10:29;;;;;;;;;;;;;;;10.61;77.00;100934.06;5353411;32;35616;-73
2022/11/09 07:13:31;;;;;;;;;;;;;;;10.99;73.83;100937.25;5346048;32;34495;-75
2022/11/09 07:16:33;;;;;;;;;;;;;;;10.83;76.07;100936.91;5337954;32;35715;-82
2022/11/09 07:19:35;;;;;;;;;;;;;;;11.10;74.90;100929.88;5343603;32;34132;-73
2022/11/09 07:22:38;;;;;;;;;;;;;;;11.05;74.03;100939.69;5355860;32;44825;-69
2022/11/09 07:25:40;;;;;;;;;;;;;;;9.61;80.54;100937.78;5339219;32;34650;-70
2022/11/09 07:28:42;;;;;;;;;;;;;;;9.77;79.43;100928.56;5341979;32;35545;-71
2022/11/09 07:31:44;;;;;;;;;;;;;;;10.92;76.46;100938.37;5357339;32;34247;-73
2022/11/09 07:34:46;;;;;;;;;;;;;;;11.32;73.25;100932.66;5329771;32;34326;-71
2022/11/09 07:37:48;;;;;;;;;;;;;;;11.22;73.81;100928.63;5339025;32;36083;-77
2022/11/09 07:40:51;;;;;;;;;;;;;;;11.75;71.41;100923.28;5337695;32;35965;-76
2022/11/09 07:43:53;;;;;;;;;;;;;;;12.01;70.80;100920.63;5342770;32;35386;-72
2022/11/09 07:46:55;;;;;;;;;;;;;;;11.76;72.09;100923.25;5322582;32;34095;-72
2022/11/09 07:49:56;;;;;;;;;;;;;;;12.44;68.40;100921.66;5332246;32;35506;-72
2022/11/09 07:52:59;;;;;;;;;;;;;;;11.80;71.13;100916.97;5359550;32;34419;-72
2022/11/09 07:56:01;;;;;;;;;;;;;;;12.39;68.68;100916.56;5330768;32;35644;-72
2022/11/09 07:59:03;;;;;;;;;;;;;;;12.22;69.03;100918.97;5346767;32;34470;-71
2022/11/09 08:02:07;;;;;;;;;;;;;;;11.91;70.84;100922.75;5350063;32;35789;-69
2022/11/09 08:05:09;;;;;;;;;;;;;;;12.08;70.63;100926.53;5346651;32;44568;-70
2022/11/09 08:08:12;;;;;;;;;;;;;;;11.89;71.60;100914.00;5337795;32;34350;-71
2022/11/09 08:11:14;;;;;;;;;;;;;;;11.73;72.94;100918.09;5334227;32;34320;-68
2022/11/09 08:14:16;;;;;;;;;;;;;;;11.98;71.24;100907.56;5339567;32;33903;-68
2022/11/09 08:17:18;;;;;;;;;;;;;;;11.33;74.92;100921.22;5353346;32;34517;-68
2022/11/09 08:20:20;;;;;;;;;;;;;;;12.13;71.53;100911.41;5357588;32;34142;-69
2022/11/09 08:23:23;;;;;;;;;;;;;;;11.63;74.00;100916.69;5331303;32;34346;-68
2022/11/09 08:26:28;;;;;;;;;;;;;;;12.39;71.14;100913.91;5346124;32;34736;-73
2022/11/09 08:29:30;;;;;;;;;;;;;;;12.44;70.29;100901.44;5349974;32;35604;-74
2022/11/09 08:32:32;;;;;;;;;;;;;;;12.64;70.09;100911.19;5335891;32;33785;-79
2022/11/09 08:35:34;;;;;;;;;;;;;;;12.71;69.96;100912.66;5355942;32;34805;-73
2022/11/09 08:38:36;;;;;;;;;;;;;;;12.43;70.97;100909.41;5313736;32;36297;-80
2022/11/09 08:41:40;;;;;;;;;;;;;;;12.23;73.24;100909.28;5344324;32;46894;-71
2022/11/09 08:44:42;;;;;;;;;;;;;;;12.73;70.37;100904.69;5346312;32;36597;-70
2022/11/09 08:47:44;;;;;;;;;;;;;;;12.46;71.66;100902.22;5326464;32;34160;-72
2022/11/09 08:50:50;;;;;;;;;;;;;;;11.99;73.89;100900.53;5342104;32;34354;-74
2022/11/09 08:53:52;;;;;;;;;;;;;;;12.39;71.90;100911.28;5348034;32;36285;-71
2022/11/09 08:56:54;;;;;;;;;;;;;;;12.58;70.83;100914.06;5364799;32;34376;-73
2022/11/09 08:59:59;;;;;;;;;;;;;;;12.40;71.76;100920.91;5350533;32;34410;-75
2022/11/09 09:03:04;;;;;;;;;;;;;;;11.94;74.25;100908.59;5355441;32;35871;-72
2022/11/09 09:06:07;;;;;;;;;;;;;;;11.52;77.17;100909.16;5320746;32;46739;-71
2022/11/09 09:09:09;;;;;;;;;;;;;;;11.46;76.94;100909.34;5333164;32;32904;-76
2022/11/09 09:12:11;;;;;;;;;;;;;;;12.35;73.51;100917.56;5354109;32;34881;-74
2022/11/09 09:15:12;;;;;;;;;;;;;;;12.33;73.47;100911.50;5304153;32;942817;-68
2022/11/09 09:18:14;;;;;;;;;;;;;;;12.65;72.01;100910.28;5361031;32;34249;-93
2022/11/09 09:21:16;;;;;;;;;;;;;;;12.22;73.72;100915.47;5360618;32;34249;-87
2022/11/09 09:24:18;;;;;;;;;;;;;;;12.70;72.11;100913.59;5366093;32;35247;-81
2022/11/09 09:27:20;;;;;;;;;;;;;;;12.37;72.11;100917.53;5352291;32;35552;-90
2022/11/09 09:30:22;;;;;;;;;;;;;;;12.55;72.15;100918.59;5338814;32;34361;-71
2022/11/09 09:33:25;;;;;;;;;;;;;;;12.64;71.75;100919.09;5357741;32;35749;-72
2022/11/09 09:36:27;;;;;;;;;;;;;;;12.62;71.80;100904.25;5343481;32;35583;-73
2022/11/09 09:39:29;;;;;;;;;;;;;;;12.52;72.48;100909.03;5357634;32;34716;-68
2022/11/09 09:42:35;;;;;;;;;;;;;;;12.41;73.34;100906.81;5334328;32;35093;-67
2022/11/09 09:45:37;;;;;;;;;;;;;;;12.47;73.16;100906.56;5335324;32;46364;-69
2022/11/09 09:48:40;;;;;;;;;;;;;;;12.69;72.68;100897.84;5323147;32;35782;-69
2022/11/09 09:51:53;;;;;;;;;;;;;;;11.80;74.51;100892.41;5338503;32;35551;-65
2022/11/09 09:55:14;;;;;;;;;;;;;;;12.30;75.34;100892.31;5361321;32;34803;-67
2022/11/09 09:58:24;;;;;;;;;;;;;;;12.35;73.59;100885.94;5334234;32;37473;-67
2022/11/09 10:01:37;;;;;;;;;;;;;;;12.34;72.98;100873.69;5358635;32;35730;-67
2022/11/09 10:04:40;;;;;;;;;;;;;;;12.82;71.83;100887.66;5351027;32;46616;-67
2022/11/09 10:08:00;;;;;;;;;;;;;;;12.54;72.80;100882.59;5349232;32;34250;-68
2022/11/09 10:11:15;;;;;;;;;;;;;;;12.58;72.79;100876.31;5350111;32;34355;-70
2022/11/09 10:14:28;;;;;;;;;;;;;;;12.72;72.25;100873.97;5311008;32;35785;-72
2022/11/09 10:17:43;;;;;;;;;;;;;;;12.79;71.66;100875.44;5346915;32;35791;-71
2022/11/09 10:21:00;;;;;;;;;;;;;;;12.95;71.27;100858.06;5346691;32;46079;-69
2022/11/09 10:24:07;;;;;;;;;;;;;;;13.04;70.96;100866.50;5340008;32;34327;-71
2022/11/09 10:27:27;;;;;;;;;;;;;;;12.29;74.07;100870.38;5346552;32;44816;-70
2022/11/09 10:30:29;;;;;;;;;;;;;;;12.62;73.05;100873.50;5338201;32;34440;-71
2022/11/09 10:33:31;;;;;;;;;;;;;;;12.87;72.01;100872.47;5345818;32;34868;-71
2022/11/09 10:36:38;;;;;;;;;;;;;;;12.77;71.89;100879.91;5346207;32;34720;-70
2022/11/09 10:39:51;;;;;;;;;;;;;;;12.19;72.66;100872.50;5331714;32;46557;-69
2022/11/09 10:42:54;;;;;;;;;;;;;;;12.40;73.16;100868.19;5346594;32;34368;-70
2022/11/09 10:46:03;;;;;;;;;;;;;;;12.83;71.82;100855.94;5317403;32;34231;-70
2022/11/09 10:49:25;;;;;;;;;;;;;;;13.02;71.11;100850.75;5334430;32;34985;-70
2022/11/09 10:52:31;;;;;;;;;;;;;;;12.80;71.68;100840.22;5331869;32;33558;-68
2022/11/09 10:55:35;;;;;;;;;;;;;;;12.82;72.19;100848.09;5334767;32;35871;-67
2022/11/09 10:58:47;;;;;;;;;;;;;;;13.10;70.42;100845.16;5344983;32;46194;-69
2022/11/09 11:01:49;;;;;;;;;;;;;;;13.09;70.25;100835.53;5330989;32;34316;-69
2022/11/09 11:05:11;;;;;;;;;;;;;;;12.93;70.47;100828.22;5355290;32;35000;-68
2022/11/09 11:08:20;;;;;;;;;;;;;;;12.79;71.36;100817.41;5347891;32;44845;-67
2022/11/09 11:11:30;;;;;;;;;;;;;;;13.02;71.05;100827.00;5343236;32;35435;-72
2022/11/09 11:14:40;;;;;;;;;;;;;;;12.55;73.33;100834.22;5342982;32;44697;-77
2022/11/09 11:17:42;;;;;;;;;;;;;;;11.92;77.27;100837.53;5327674;32;34525;-76
2022/11/09 11:20:44;;;;;;;;;;;;;;;11.64;78.28;100835.00;5328520;32;34326;-79
2022/11/09 11:24:02;;;;;;;;;;;;;;;12.77;73.47;100832.44;5323454;32;34663;-75
2022/11/09 11:27:05;;;;;;;;;;;;;;;12.83;72.79;100828.69;5339750;32;35812;-80
2022/11/09 11:30:12;;;;;;;;;;;;;;;12.80;72.87;100827.03;5336210;32;43249;-77
2022/11/09 11:33:14;;;;;;;;;;;;;;;12.97;72.24;100821.91;5332039;32;35978;-76
2022/11/09 11:36:18;;;;;;;;;;;;;;;13.11;71.17;100826.59;5330089;32;34357;-76
2022/11/09 11:39:26;;;;;;;;;;;;;;;12.57;74.28;100829.75;5335200;32;35677;-78
2022/11/09 11:42:36;;;;;;;;;;;;;;;12.68;74.50;100828.38;5361125;32;35522;-70
2022/11/09 11:45:42;;;;;;;;;;;;;;;11.71;79.26;100829.50;5334941;32;44920;-74
2022/11/09 11:49:03;;;;;;;;;;;;;;;12.68;74.43;100825.75;5341812;32;34223;-74
2022/11/09 11:52:24;;;;;;;;;;;;;;;12.69;74.43;100822.22;5359376;32;35276;-72
2022/11/09 11:55:37;;;;;;;;;;;;;;;12.52;73.95;100823.81;5346663;32;36184;-68
2022/11/09 11:58:39;;;;;;;;;;;;;;;11.73;77.96;100827.72;5341163;32;44265;-72
2022/11/09 12:01:50;;;;;;;;;;;;;;;13.06;72.85;100810.09;5352038;32;34375;-70
2022/11/09 12:05:13;;;;;;;;;;;;;;;13.11;72.11;100805.50;5347285;32;35484;-68
2022/11/09 12:08:21;;;;;;;;;;;;;;;13.04;71.91;100814.59;5333805;32;44670;-70
2022/11/09 12:11:27;;;;;;;;;;;;;;;13.32;70.94;100810.78;5349377;32;35500;-70
2022/11/09 12:14:52;;;;;;;;;;;;;;;12.94;72.19;100814.13;5343628;32;36165;-66
2022/11/09 12:18:01;;;;;;;;;;;;;;;13.41;70.47;100802.50;5319921;32;34219;-66
2022/11/09 12:21:22;;;;;;;;;;;;;;;13.12;71.29;100809.84;5331293;32;34264;-69
2022/11/09 12:24:29;;;;;;;;;;;;;;;13.19;70.80;100799.87;5354388;32;34713;-67
2022/11/09 12:27:36;;;;;;;;;;;;;;;13.14;71.05;100801.88;5346321;32;35555;-67
2022/11/09 12:30:40;;;;;;;;;;;;;;;13.12;70.72;100799.28;5350182;32;44517;-69
2022/11/09 12:33:55;;;;;;;;;;;;;;;12.86;71.77;100799.53;5355344;32;34710;-67
2022/11/09 12:37:03;;;;;;;;;;;;;;;12.98;71.61;100796.37;5351107;32;34310;-68
2022/11/09 12:40:18;;;;;;;;;;;;;;;13.19;70.89;100799.87;5346633;32;35561;-68
2022/11/09 12:43:21;;;;;;;;;;;;;;;12.97;71.90;100797.31;5353750;32;35733;-68
2022/11/09 12:46:25;;;;;;;;;;;;;;;13.14;71.47;100799.25;5326420;32;34298;-75
2022/11/09 12:49:38;;;;;;;;;;;;;;;13.23;70.66;100791.81;5340864;32;34327;-74
2022/11/09 12:52:39;;;;;;;;;;;;;;;13.19;71.48;100795.44;5344506;32;44599;-66
2022/11/09 12:55:44;;;;;;;;;;;;;;;13.15;70.75;100787.75;5347342;32;34130;-68
2022/11/09 12:58:46;;;;;;;;;;;;;;;13.18;71.22;100787.59;5331973;32;34611;-68
2022/11/09 13:01:54;;;;;;;;;;;;;;;12.83;72.30;100792.63;5361376;32;35263;-69
2022/11/09 13:05:00;;;;;;;;;;;;;;;12.28;73.52;100794.00;5337100;32;34390;-68
2022/11/09 13:08:06;;;;;;;;;;;;;;;12.86;72.94;100787.19;5346932;32;34402;-67
2022/11/09 13:11:09;;;;;;;;;;;;;;;13.05;72.10;100789.91;5336470;32;44668;-68
2022/11/09 13:14:29;;;;;;;;;;;;;;;13.04;71.95;100785.56;5343294;32;34237;-68
2022/11/09 13:17:32;;;;;;;;;;;;;;;12.90;72.66;100782.66;5360487;32;35934;-70
2022/11/09 13:20:34;;;;;;;;;;;;;;;13.25;71.49;100779.37;5348553;32;35567;-71
2022/11/09 13:23:56;;;;;;;;;;;;;;;13.11;72.23;100779.09;5346822;32;34048;-68
2022/11/09 13:27:25;;;;;;;;;;;;;;;13.01;72.27;100770.75;5362296;32;34415;-70
2022/11/09 13:30:27;;;;;;;;;;;;;;;12.91;72.48;100769.41;5349205;32;35547;-75
2022/11/09 13:33:29;;;;;;;;;;;;;;;12.83;74.61;100770.66;5355669;32;34286;-72
2022/11/09 13:36:31;;;;;;;;;;;;;;;12.45;74.98;100771.31;5333933;32;34283;-70
2022/11/09 13:39:33;;;;;;;;;;;;;;;12.94;74.84;100771.03;5340617;32;34443;-67
2022/11/09 13:42:35;;;;;;;;;;;;;;;12.42;75.99;100781.97;5324308;32;35511;-70
2022/11/09 13:45:56;;;;;;;;;;;;;;;13.01;73.62;100773.38;5337441;32;44471;-68
2022/11/09 13:48:58;;;;;;;;;;;;;;;12.98;72.70;100762.94;5339457;32;35460;-71
2022/11/09 13:52:00;;;;;;;;;;;;;;;12.96;72.80;100770.06;5338885;32;34513;-65
2022/11/09 13:55:02;;;;;;;;;;;;;;;13.39;71.44;100768.22;5342816;32;35108;-66
2022/11/09 13:58:07;;;;;;;;;;;;;;;13.26;72.09;100767.03;5335310;32;34719;-66
2022/11/09 14:01:28;;;;;;;;;;;;;;;13.39;71.24;100762.94;5337506;32;44821;-66
2022/11/09 14:04:32;;;;;;;;;;;;;;;13.30;71.41;100766.00;5360000;32;34193;-66
2022/11/09 14:07:37;;;;;;;;;;;;;;;12.41;76.16;100774.12;5352415;32;35535;-66
2022/11/09 14:10:44;;;;;;;;;;;;;;;13.20;72.28;100765.56;5346325;32;46699;-66
2022/11/09 14:13:46;;;;;;;;;;;;;;;13.09;72.99;100767.75;5347293;32;35115;-66
2022/11/09 14:17:09;;;;;;;;;;;;;;;12.91;73.03;100773.81;5349534;32;33606;-67
2022/11/09 14:20:16;;;;;;;;;;;;;;;13.19;71.47;100774.34;5335188;32;45394;-66
2022/11/09 14:23:19;;;;;;;;;;;;;;;12.92;72.87;100773.75;5353551;32;34758;-65
2022/11/09 14:26:21;;;;;;;;;;;;;;;13.02;72.47;100768.97;5362215;32;35007;-71
2022/11/09 14:29:24;;;;;;;;;;;;;;;12.48;75.07;100772.97;5326538;32;35788;-72
2022/11/09 14:32:26;;;;;;;;;;;;;;;12.89;73.92;100776.53;5343856;32;34404;-72
2022/11/09 14:35:29;;;;;;;;;;;;;;;13.10;72.93;100764.19;5357687;32;34259;-68
2022/11/09 14:38:34;;;;;;;;;;;;;;;13.08;72.61;100760.78;5353695;32;37116;-67
2022/11/09 14:41:36;;;;;;;;;;;;;;;13.07;72.73;100763.47;5340132;32;46766;-67
2022/11/09 14:44:41;;;;;;;;;;;;;;;13.22;72.59;100757.56;5345634;32;35485;-67
2022/11/09 14:47:44;;;;;;;;;;;;;;;13.34;71.59;100764.09;5322963;32;34259;-68
2022/11/09 14:50:45;;;;;;;;;;;;;;;13.24;71.91;100767.12;5339810;32;34576;-67
2022/11/09 14:53:47;;;;;;;;;;;;;;;13.21;72.06;100766.41;5357791;32;34361;-72
2022/11/09 14:56:49;;;;;;;;;;;;;;;12.51;74.94;100772.84;5361095;32;35143;-72
2022/11/09 14:59:51;;;;;;;;;;;;;;;12.71;75.48;100774.66;5342862;32;34275;-72
2022/11/09 15:02:54;;;;;;;;;;;;;;;13.06;73.23;100769.66;5361421;32;34446;-88
2022/11/09 15:06:09;;;;;;;;;;;;;;;12.66;74.77;100768.72;5325072;32;34915;-75
2022/11/09 15:09:14;;;;;;;;;;;;;;;13.35;72.88;100765.78;5360054;32;44378;-70
2022/11/09 15:12:17;;;;;;;;;;;;;;;13.07;73.77;100764.31;5344151;32;36493;-68
2022/11/09 15:15:20;;;;;;;;;;;;;;;13.71;69.98;100769.41;5354363;32;34683;-65
2022/11/09 15:18:24;;;;;;;;;;;;;;;13.36;70.99;100765.72;5350037;32;35200;-68
2022/11/09 15:21:34;;;;;;;;;;;;;;;13.50;70.77;100776.50;5327011;32;34218;-72
2022/11/09 15:24:54;;;;;;;;;;;;;;;13.15;71.10;100767.50;5344263;32;44690;-72
2022/11/09 15:27:56;;;;;;;;;;;;;;;13.47;70.89;100776.66;5345849;32;35636;-69
2022/11/09 15:30:58;;;;;;;;;;;;;;;12.50;75.32;100778.19;5345720;32;35809;-70
2022/11/09 15:34:00;;;;;;;;;;;;;;;12.78;76.02;100773.50;5354570;32;35644;-74
2022/11/09 15:37:02;;;;;;;;;;;;;;;12.43;77.36;100778.44;5321296;32;34816;-70
2022/11/09 15:40:05;;;;;;;;;;;;;;;13.40;71.94;100767.31;5341250;32;33994;-71
2022/11/09 15:43:07;;;;;;;;;;;;;;;13.12;73.13;100778.19;5343540;32;44866;-70
2022/11/09 15:46:13;;;;;;;;;;;;;;;13.00;73.82;100771.63;5342342;32;36095;-75
2022/11/09 15:49:16;;;;;;;;;;;;;;;12.19;76.82;100782.06;5329313;32;34987;-71